sensor_id;sensor_type;location;lat;lon;timestamp;pressure;altitude;pressure_sealevel;temperature;humidity
19831;BME280;10076;52.008;4.708;2023-03-25T00:00:10;100120.66;;;11.54;100.00
19831;BME280;10076;52.008;4.708;2023-03-25T00:02:39;100124.41;;;11.51;100.00
19831;BME280;10076;52.008;4.708;2023-03-25T00:05:06;100126.19;;;11.51;100.00
19831;BME280;10076;52.008;4.708;2023-03-25T00:07:31;100119.41;;;11.58;100.00
19831;BME280;10076;52.008;4.708;2023-03-25T00:09:57;100123.03;;;11.57;100.00
19831;BME280;10076;52.008;4.708;2023-03-25T00:12:22;100136.97;;;11.59;100.00
19831;BME280;10076;52.008;4.708;2023-03-25T00:14:48;100131.59;;;11.49;100.00
19831;BME280;10076;52.008;4.708;2023-03-25T00:17:19;100120.13;;;11.39;100.00
19831;BME280;10076;52.008;4.708;2023-03-25T00:19:45;100127.47;;;11.36;100.00
19831;BME280;10076;52.008;4.708;2023-03-25T00:22:10;100129.75;;;11.50;100.00
19831;BME280;10076;52.008;4.708;2023-03-25T00:24:36;100113.16;;;11.38;100.00
19831;BME280;10076;52.008;4.708;2023-03-25T00:27:01;100123.34;;;11.43;100.00
19831;BME280;10076;52.008;4.708;2023-03-25T00:29:27;100113.69;;;11.53;100.00
19831;BME280;10076;52.008;4.708;2023-03-25T00:31:53;100110.81;;;11.45;100.00
19831;BME280;10076;52.008;4.708;2023-03-25T00:34:18;100110.66;;;11.37;100.00
19831;BME280;10076;52.008;4.708;2023-03-25T00:36:44;100115.94;;;11.37;100.00
19831;BME280;10076;52.008;4.708;2023-03-25T00:39:10;100109.03;;;11.45;100.00
19831;BME280;10076;52.008;4.708;2023-03-25T00:41:35;100121.28;;;11.46;100.00
19831;BME280;10076;52.008;4.708;2023-03-25T00:44:02;100118.75;;;11.45;100.00
19831;BME280;10076;52.008;4.708;2023-03-25T00:46:29;100121.47;;;11.54;100.00
19831;BME280;10076;52.008;4.708;2023-03-25T00:48:56;100114.19;;;11.47;100.00
19831;BME280;10076;52.008;4.708;2023-03-25T00:51:23;100108.00;;;11.57;100.00
19831;BME280;10076;52.008;4.708;2023-03-25T00:53:57;100117.88;;;11.55;100.00
19831;BME280;10076;52.008;4.708;2023-03-25T00:56:24;100112.00;;;11.52;100.00
19831;BME280;10076;52.008;4.708;2023-03-25T00:58:50;100109.78;;;11.57;100.00
19831;BME280;10076;52.008;4.708;2023-03-25T01:01:18;100104.94;;;11.52;100.00
19831;BME280;10076;52.008;4.708;2023-03-25T01:03:48;100109.22;;;11.33;100.00
19831;BME280;10076;52.008;4.708;2023-03-25T01:06:15;100112.97;;;11.51;100.00
19831;BME280;10076;52.008;4.708;2023-03-25T01:08:42;100116.78;;;11.58;100.00
19831;BME280;10076;52.008;4.708;2023-03-25T01:11:20;100107.50;;;11.43;100.00
19831;BME280;10076;52.008;4.708;2023-03-25T01:13:46;100102.88;;;11.45;100.00
19831;BME280;10076;52.008;4.708;2023-03-25T01:16:11;100114.31;;;11.45;100.00
19831;BME280;10076;52.008;4.708;2023-03-25T01:18:37;100114.34;;;11.25;100.00
19831;BME280;10076;52.008;4.708;2023-03-25T01:21:06;100115.44;;;11.02;100.00
19831;BME280;10076;52.008;4.708;2023-03-25T01:23:32;100104.66;;;10.94;100.00
19831;BME280;10076;52.008;4.708;2023-03-25T01:25:57;100112.41;;;10.75;100.00
19831;BME280;10076;52.008;4.708;2023-03-25T01:28:23;100109.38;;;10.59;100.00
19831;BME280;10076;52.008;4.708;2023-03-25T01:30:48;100120.66;;;10.61;100.00
19831;BME280;10076;52.008;4.708;2023-03-25T01:33:14;100133.91;;;10.50;100.00
19831;BME280;10076;52.008;4.708;2023-03-25T01:35:40;100115.84;;;10.66;100.00
19831;BME280;10076;52.008;4.708;2023-03-25T01:38:05;100111.16;;;10.70;100.00
19831;BME280;10076;52.008;4.708;2023-03-25T01:40:30;100101.22;;;10.62;100.00
19831;BME280;10076;52.008;4.708;2023-03-25T01:42:56;100115.69;;;10.68;100.00
19831;BME280;10076;52.008;4.708;2023-03-25T01:45:27;100101.78;;;10.66;100.00
19831;BME280;10076;52.008;4.708;2023-03-25T01:48:05;100114.28;;;10.64;100.00
19831;BME280;10076;52.008;4.708;2023-03-25T01:50:35;100115.84;;;10.66;100.00
19831;BME280;10076;52.008;4.708;2023-03-25T01:53:03;100109.31;;;10.70;100.00
19831;BME280;10076;52.008;4.708;2023-03-25T01:55:31;100112.25;;;10.67;100.00
19831;BME280;10076;52.008;4.708;2023-03-25T01:57:58;100110.56;;;10.66;100.00
19831;BME280;10076;52.008;4.708;2023-03-25T02:00:24;100103.59;;;10.65;100.00
19831;BME280;10076;52.008;4.708;2023-03-25T02:02:51;100105.66;;;10.62;100.00
19831;BME280;10076;52.008;4.708;2023-03-25T02:05:28;100105.13;;;10.68;100.00
19831;BME280;10076;52.008;4.708;2023-03-25T02:07:56;100100.72;;;10.68;100.00
19831;BME280;10076;52.008;4.708;2023-03-25T02:10:22;100094.22;;;10.72;100.00
19831;BME280;10076;52.008;4.708;2023-03-25T02:12:48;100098.63;;;10.72;100.00
19831;BME280;10076;52.008;4.708;2023-03-25T02:15:15;100103.81;;;10.73;100.00
19831;BME280;10076;52.008;4.708;2023-03-25T02:22:59;100093.31;;;10.83;100.00
19831;BME280;10076;52.008;4.708;2023-03-25T02:25:54;100102.53;;;10.88;100.00
19831;BME280;10076;52.008;4.708;2023-03-25T02:31:29;100091.44;;;10.94;100.00
19831;BME280;10076;52.008;4.708;2023-03-25T02:36:52;100090.56;;;10.84;100.00
19831;BME280;10076;52.008;4.708;2023-03-25T02:39:41;100079.09;;;10.74;100.00
19831;BME280;10076;52.008;4.708;2023-03-25T02:42:20;100081.66;;;10.85;100.00
19831;BME280;10076;52.008;4.708;2023-03-25T02:44:58;100089.25;;;10.99;100.00
19831;BME280;10076;52.008;4.708;2023-03-25T02:47:28;100072.81;;;10.96;100.00
19831;BME280;10076;52.008;4.708;2023-03-25T02:49:59;100083.38;;;10.96;100.00
19831;BME280;10076;52.008;4.708;2023-03-25T02:52:32;100080.31;;;10.91;100.00
19831;BME280;10076;52.008;4.708;2023-03-25T02:55:05;100087.53;;;10.89;100.00
19831;BME280;10076;52.008;4.708;2023-03-25T02:57:37;100079.34;;;10.92;100.00
19831;BME280;10076;52.008;4.708;2023-03-25T03:00:05;100083.66;;;10.93;100.00
19831;BME280;10076;52.008;4.708;2023-03-25T03:02:43;100073.84;;;10.84;100.00
19831;BME280;10076;52.008;4.708;2023-03-25T03:05:25;100064.22;;;10.94;100.00
19831;BME280;10076;52.008;4.708;2023-03-25T03:08:22;100067.53;;;10.96;100.00
19831;BME280;10076;52.008;4.708;2023-03-25T03:13:24;100062.19;;;10.86;100.00
19831;BME280;10076;52.008;4.708;2023-03-25T03:18:49;100047.97;;;10.98;100.00
19831;BME280;10076;52.008;4.708;2023-03-25T03:21:22;100044.75;;;10.95;100.00
19831;BME280;10076;52.008;4.708;2023-03-25T03:24:04;100047.28;;;10.76;100.00
19831;BME280;10076;52.008;4.708;2023-03-25T03:26:45;100049.84;;;10.66;100.00
19831;BME280;10076;52.008;4.708;2023-03-25T03:29:34;100042.28;;;10.62;100.00
19831;BME280;10076;52.008;4.708;2023-03-25T03:34:47;100053.94;;;10.59;100.00
19831;BME280;10076;52.008;4.708;2023-03-25T03:37:27;100054.44;;;10.53;100.00
19831;BME280;10076;52.008;4.708;2023-03-25T03:39:56;100060.50;;;10.44;100.00
19831;BME280;10076;52.008;4.708;2023-03-25T03:42:29;100064.59;;;10.37;100.00
19831;BME280;10076;52.008;4.708;2023-03-25T03:45:03;100070.38;;;10.32;100.00
19831;BME280;10076;52.008;4.708;2023-03-25T03:47:36;100077.03;;;10.04;100.00
19831;BME280;10076;52.008;4.708;2023-03-25T03:50:10;100085.78;;;10.16;100.00
19831;BME280;10076;52.008;4.708;2023-03-25T03:52:50;100077.50;;;10.09;100.00
19831;BME280;10076;52.008;4.708;2023-03-25T03:58:11;100088.13;;;10.30;100.00
19831;BME280;10076;52.008;4.708;2023-03-25T04:00:48;100087.94;;;10.11;100.00
19831;BME280;10076;52.008;4.708;2023-03-25T04:03:20;100092.88;;;10.04;100.00
19831;BME280;10076;52.008;4.708;2023-03-25T04:06:13;100101.13;;;10.00;100.00
19831;BME280;10076;52.008;4.708;2023-03-25T04:08:48;100090.31;;;10.14;100.00
19831;BME280;10076;52.008;4.708;2023-03-25T04:11:21;100088.50;;;10.14;100.00
19831;BME280;10076;52.008;4.708;2023-03-25T04:13:51;100084.44;;;10.21;100.00
19831;BME280;10076;52.008;4.708;2023-03-25T04:16:18;100085.31;;;10.11;100.00
19831;BME280;10076;52.008;4.708;2023-03-25T04:18:43;100076.41;;;10.12;100.00
19831;BME280;10076;52.008;4.708;2023-03-25T04:21:12;100073.31;;;10.07;100.00
19831;BME280;10076;52.008;4.708;2023-03-25T04:23:39;100073.91;;;10.10;100.00
19831;BME280;10076;52.008;4.708;2023-03-25T04:26:05;100073.09;;;10.10;100.00
19831;BME280;10076;52.008;4.708;2023-03-25T04:28:31;100074.13;;;10.18;100.00
19831;BME280;10076;52.008;4.708;2023-03-25T04:30:57;100079.03;;;10.23;100.00
19831;BME280;10076;52.008;4.708;2023-03-25T04:33:25;100081.66;;;10.23;100.00
19831;BME280;10076;52.008;4.708;2023-03-25T04:35:51;100066.19;;;10.29;100.00
19831;BME280;10076;52.008;4.708;2023-03-25T04:38:18;100073.00;;;10.32;100.00
19831;BME280;10076;52.008;4.708;2023-03-25T04:40:44;100082.75;;;10.31;100.00
19831;BME280;10076;52.008;4.708;2023-03-25T04:43:13;100075.38;;;10.34;100.00
19831;BME280;10076;52.008;4.708;2023-03-25T04:45:39;100078.03;;;10.34;100.00
19831;BME280;10076;52.008;4.708;2023-03-25T04:48:31;100085.25;;;10.32;100.00
19831;BME280;10076;52.008;4.708;2023-03-25T04:50:58;100070.69;;;10.38;100.00
19831;BME280;10076;52.008;4.708;2023-03-25T04:53:26;100084.84;;;10.37;100.00
19831;BME280;10076;52.008;4.708;2023-03-25T04:55:52;100090.22;;;10.46;100.00
19831;BME280;10076;52.008;4.708;2023-03-25T04:58:18;100091.91;;;10.47;100.00
19831;BME280;10076;52.008;4.708;2023-03-25T05:00:45;100085.81;;;10.47;100.00
19831;BME280;10076;52.008;4.708;2023-03-25T05:03:11;100090.56;;;10.53;100.00
19831;BME280;10076;52.008;4.708;2023-03-25T05:05:37;100103.88;;;10.51;100.00
19831;BME280;10076;52.008;4.708;2023-03-25T05:08:02;100109.16;;;10.51;100.00
19831;BME280;10076;52.008;4.708;2023-03-25T05:10:28;100100.88;;;10.56;100.00
19831;BME280;10076;52.008;4.708;2023-03-25T05:13:09;100101.50;;;10.48;100.00
19831;BME280;10076;52.008;4.708;2023-03-25T05:15:36;100104.22;;;10.58;100.00
19831;BME280;10076;52.008;4.708;2023-03-25T05:18:06;100099.81;;;10.47;100.00
19831;BME280;10076;52.008;4.708;2023-03-25T05:20:34;100092.84;;;10.46;100.00
19831;BME280;10076;52.008;4.708;2023-03-25T05:23:02;100100.53;;;10.49;100.00
19831;BME280;10076;52.008;4.708;2023-03-25T05:25:28;100101.53;;;10.37;100.00
19831;BME280;10076;52.008;4.708;2023-03-25T05:27:58;100103.31;;;10.37;100.00
19831;BME280;10076;52.008;4.708;2023-03-25T05:30:23;100089.31;;;10.36;100.00
19831;BME280;10076;52.008;4.708;2023-03-25T05:32:48;100100.59;;;10.38;100.00
19831;BME280;10076;52.008;4.708;2023-03-25T05:35:15;100104.03;;;10.39;100.00
19831;BME280;10076;52.008;4.708;2023-03-25T05:37:40;100097.72;;;10.31;100.00
19831;BME280;10076;52.008;4.708;2023-03-25T05:40:06;100110.69;;;10.33;100.00
19831;BME280;10076;52.008;4.708;2023-03-25T05:42:33;100113.41;;;10.32;100.00
19831;BME280;10076;52.008;4.708;2023-03-25T05:44:58;100130.56;;;10.37;100.00
19831;BME280;10076;52.008;4.708;2023-03-25T05:47:24;100102.75;;;10.33;100.00
19831;BME280;10076;52.008;4.708;2023-03-25T05:49:51;100114.97;;;10.45;100.00
19831;BME280;10076;52.008;4.708;2023-03-25T05:52:17;100116.25;;;10.51;100.00
19831;BME280;10076;52.008;4.708;2023-03-25T05:54:44;100113.00;;;10.47;100.00
19831;BME280;10076;52.008;4.708;2023-03-25T05:57:11;100113.88;;;10.48;100.00
19831;BME280;10076;52.008;4.708;2023-03-25T05:59:37;100125.59;;;10.55;100.00
19831;BME280;10076;52.008;4.708;2023-03-25T06:02:12;100124.88;;;10.53;100.00
19831;BME280;10076;52.008;4.708;2023-03-25T06:04:38;100123.44;;;10.49;100.00
19831;BME280;10076;52.008;4.708;2023-03-25T06:07:13;100109.91;;;10.42;100.00
19831;BME280;10076;52.008;4.708;2023-03-25T06:09:44;100128.84;;;10.47;100.00
19831;BME280;10076;52.008;4.708;2023-03-25T06:12:11;100120.28;;;10.24;100.00
19831;BME280;10076;52.008;4.708;2023-03-25T06:14:37;100138.38;;;10.28;100.00
19831;BME280;10076;52.008;4.708;2023-03-25T06:17:07;100142.69;;;10.29;100.00
19831;BME280;10076;52.008;4.708;2023-03-25T06:19:32;100126.63;;;10.21;100.00
19831;BME280;10076;52.008;4.708;2023-03-25T06:22:04;100133.72;;;10.21;100.00
19831;BME280;10076;52.008;4.708;2023-03-25T06:24:30;100133.47;;;10.24;100.00
19831;BME280;10076;52.008;4.708;2023-03-25T06:26:55;100133.25;;;10.27;100.00
19831;BME280;10076;52.008;4.708;2023-03-25T06:29:20;100131.03;;;10.42;100.00
19831;BME280;10076;52.008;4.708;2023-03-25T06:31:46;100124.09;;;10.31;100.00
19831;BME280;10076;52.008;4.708;2023-03-25T06:34:11;100137.56;;;10.28;100.00
19831;BME280;10076;52.008;4.708;2023-03-25T06:36:36;100140.06;;;10.29;100.00
19831;BME280;10076;52.008;4.708;2023-03-25T06:39:02;100153.94;;;10.42;100.00
19831;BME280;10076;52.008;4.708;2023-03-25T06:41:29;100163.06;;;10.38;100.00
19831;BME280;10076;52.008;4.708;2023-03-25T06:43:54;100134.84;;;10.49;100.00
19831;BME280;10076;52.008;4.708;2023-03-25T06:46:20;100149.72;;;10.50;100.00
19831;BME280;10076;52.008;4.708;2023-03-25T06:48:45;100144.47;;;10.50;100.00
19831;BME280;10076;52.008;4.708;2023-03-25T06:51:10;100148.50;;;10.54;100.00
19831;BME280;10076;52.008;4.708;2023-03-25T06:53:35;100160.03;;;10.53;100.00
19831;BME280;10076;52.008;4.708;2023-03-25T06:56:01;100144.78;;;10.57;100.00
19831;BME280;10076;52.008;4.708;2023-03-25T06:58:26;100149.66;;;10.72;100.00
19831;BME280;10076;52.008;4.708;2023-03-25T07:00:59;100157.44;;;10.74;100.00
19831;BME280;10076;52.008;4.708;2023-03-25T07:03:28;100165.50;;;10.72;100.00
19831;BME280;10076;52.008;4.708;2023-03-25T07:05:53;100159.44;;;10.81;100.00
19831;BME280;10076;52.008;4.708;2023-03-25T07:08:19;100158.34;;;10.95;100.00
19831;BME280;10076;52.008;4.708;2023-03-25T07:10:44;100173.50;;;10.82;100.00
19831;BME280;10076;52.008;4.708;2023-03-25T07:13:10;100179.97;;;10.89;100.00
19831;BME280;10076;52.008;4.708;2023-03-25T07:15:36;100153.75;;;10.97;100.00
19831;BME280;10076;52.008;4.708;2023-03-25T07:18:01;100167.16;;;11.04;100.00
19831;BME280;10076;52.008;4.708;2023-03-25T07:20:27;100167.16;;;11.04;100.00
19831;BME280;10076;52.008;4.708;2023-03-25T07:22:53;100149.50;;;11.05;100.00
19831;BME280;10076;52.008;4.708;2023-03-25T07:25:19;100162.06;;;11.12;100.00
19831;BME280;10076;52.008;4.708;2023-03-25T07:27:45;100166.81;;;10.98;100.00
19831;BME280;10076;52.008;4.708;2023-03-25T07:30:11;100165.22;;;11.06;100.00
19831;BME280;10076;52.008;4.708;2023-03-25T07:32:36;100156.47;;;11.06;100.00
19831;BME280;10076;52.008;4.708;2023-03-25T07:35:01;100159.09;;;11.06;100.00
19831;BME280;10076;52.008;4.708;2023-03-25T07:37:27;100167.75;;;11.08;100.00
19831;BME280;10076;52.008;4.708;2023-03-25T07:39:53;100157.88;;;11.10;100.00
19831;BME280;10076;52.008;4.708;2023-03-25T07:42:18;100160.09;;;11.25;100.00
19831;BME280;10076;52.008;4.708;2023-03-25T07:44:44;100161.25;;;11.32;100.00
19831;BME280;10076;52.008;4.708;2023-03-25T07:47:09;100164.28;;;11.28;100.00
19831;BME280;10076;52.008;4.708;2023-03-25T07:49:34;100176.59;;;11.18;100.00
19831;BME280;10076;52.008;4.708;2023-03-25T07:52:00;100152.81;;;11.18;100.00
19831;BME280;10076;52.008;4.708;2023-03-25T07:54:25;100157.31;;;11.27;100.00
19831;BME280;10076;52.008;4.708;2023-03-25T07:56:51;100163.88;;;11.32;100.00
19831;BME280;10076;52.008;4.708;2023-03-25T07:59:19;100183.41;;;11.20;100.00
19831;BME280;10076;52.008;4.708;2023-03-25T08:01:45;100162.03;;;11.03;100.00
19831;BME280;10076;52.008;4.708;2023-03-25T08:04:10;100177.38;;;11.09;100.00
19831;BME280;10076;52.008;4.708;2023-03-25T08:06:38;100198.69;;;11.17;100.00
19831;BME280;10076;52.008;4.708;2023-03-25T08:09:03;100176.78;;;11.26;100.00
19831;BME280;10076;52.008;4.708;2023-03-25T08:11:28;100196.75;;;11.19;100.00
19831;BME280;10076;52.008;4.708;2023-03-25T08:13:54;100185.03;;;11.12;100.00
19831;BME280;10076;52.008;4.708;2023-03-25T08:16:20;100212.16;;;11.14;100.00
19831;BME280;10076;52.008;4.708;2023-03-25T08:18:45;100178.19;;;11.30;100.00
19831;BME280;10076;52.008;4.708;2023-03-25T08:21:17;100190.50;;;11.51;100.00
19831;BME280;10076;52.008;4.708;2023-03-25T08:23:50;100198.31;;;11.42;100.00
19831;BME280;10076;52.008;4.708;2023-03-25T08:26:15;100192.66;;;11.46;100.00
19831;BME280;10076;52.008;4.708;2023-03-25T08:28:41;100217.16;;;11.69;100.00
19831;BME280;10076;52.008;4.708;2023-03-25T08:31:06;100189.16;;;11.86;100.00
19831;BME280;10076;52.008;4.708;2023-03-25T08:33:33;100193.09;;;11.92;100.00
19831;BME280;10076;52.008;4.708;2023-03-25T08:36:04;100191.22;;;11.83;100.00
19831;BME280;10076;52.008;4.708;2023-03-25T08:38:29;100190.13;;;11.85;100.00
19831;BME280;10076;52.008;4.708;2023-03-25T08:40:56;100201.63;;;11.75;100.00
19831;BME280;10076;52.008;4.708;2023-03-25T08:43:21;100204.59;;;11.81;100.00
19831;BME280;10076;52.008;4.708;2023-03-25T08:45:47;100198.06;;;11.85;100.00
19831;BME280;10076;52.008;4.708;2023-03-25T08:48:12;100196.31;;;11.95;100.00
19831;BME280;10076;52.008;4.708;2023-03-25T08:50:37;100199.88;;;11.85;100.00
19831;BME280;10076;52.008;4.708;2023-03-25T08:53:03;100197.81;;;11.88;100.00
19831;BME280;10076;52.008;4.708;2023-03-25T08:55:28;100203.88;;;12.09;100.00
19831;BME280;10076;52.008;4.708;2023-03-25T08:57:54;100214.38;;;12.20;100.00
19831;BME280;10076;52.008;4.708;2023-03-25T09:00:19;100197.13;;;11.96;100.00
19831;BME280;10076;52.008;4.708;2023-03-25T09:02:48;100212.03;;;11.97;100.00
19831;BME280;10076;52.008;4.708;2023-03-25T09:05:14;100215.97;;;12.02;100.00
19831;BME280;10076;52.008;4.708;2023-03-25T09:07:40;100215.22;;;12.21;100.00
19831;BME280;10076;52.008;4.708;2023-03-25T09:10:07;100209.78;;;12.22;100.00
19831;BME280;10076;52.008;4.708;2023-03-25T09:12:33;100220.56;;;12.39;100.00
19831;BME280;10076;52.008;4.708;2023-03-25T09:14:58;100223.75;;;12.34;100.00
19831;BME280;10076;52.008;4.708;2023-03-25T09:17:24;100213.72;;;12.37;100.00
19831;BME280;10076;52.008;4.708;2023-03-25T09:19:49;100212.72;;;12.29;100.00
19831;BME280;10076;52.008;4.708;2023-03-25T09:22:15;100205.94;;;12.36;100.00
19831;BME280;10076;52.008;4.708;2023-03-25T09:24:41;100216.91;;;12.31;100.00
19831;BME280;10076;52.008;4.708;2023-03-25T09:27:07;100204.84;;;12.47;100.00
19831;BME280;10076;52.008;4.708;2023-03-25T09:29:32;100217.94;;;12.49;100.00
19831;BME280;10076;52.008;4.708;2023-03-25T09:31:58;100217.84;;;12.50;100.00
19831;BME280;10076;52.008;4.708;2023-03-25T09:34:24;100225.31;;;12.45;100.00
19831;BME280;10076;52.008;4.708;2023-03-25T09:36:49;100226.50;;;12.62;100.00
19831;BME280;10076;52.008;4.708;2023-03-25T09:39:15;100214.53;;;12.67;100.00
19831;BME280;10076;52.008;4.708;2023-03-25T09:44:34;100210.38;;;12.84;100.00
19831;BME280;10076;52.008;4.708;2023-03-25T09:47:03;100225.22;;;13.14;100.00
19831;BME280;10076;52.008;4.708;2023-03-25T09:49:43;100213.75;;;13.23;100.00
19831;BME280;10076;52.008;4.708;2023-03-25T09:52:17;100219.19;;;13.03;100.00
19831;BME280;10076;52.008;4.708;2023-03-25T09:54:48;100243.50;;;13.08;100.00
19831;BME280;10076;52.008;4.708;2023-03-25T09:57:21;100240.16;;;13.06;100.00
19831;BME280;10076;52.008;4.708;2023-03-25T09:59:51;100231.91;;;13.37;100.00
19831;BME280;10076;52.008;4.708;2023-03-25T10:02:40;100224.78;;;13.47;100.00
19831;BME280;10076;52.008;4.708;2023-03-25T10:05:34;100230.72;;;13.87;100.00
19831;BME280;10076;52.008;4.708;2023-03-25T10:11:28;100229.97;;;14.13;100.00
19831;BME280;10076;52.008;4.708;2023-03-25T10:14:07;100242.16;;;14.06;100.00
19831;BME280;10076;52.008;4.708;2023-03-25T10:22:04;100260.09;;;13.19;100.00
19831;BME280;10076;52.008;4.708;2023-03-25T10:24:34;100248.81;;;13.08;100.00
19831;BME280;10076;52.008;4.708;2023-03-25T10:27:05;100263.72;;;13.18;100.00
19831;BME280;10076;52.008;4.708;2023-03-25T10:29:41;100266.78;;;13.23;100.00
19831;BME280;10076;52.008;4.708;2023-03-25T10:32:29;100273.66;;;13.16;100.00
19831;BME280;10076;52.008;4.708;2023-03-25T10:34:56;100258.72;;;13.15;100.00
19831;BME280;10076;52.008;4.708;2023-03-25T10:37:34;100277.41;;;13.05;100.00
19831;BME280;10076;52.008;4.708;2023-03-25T10:42:44;100274.31;;;13.09;100.00
19831;BME280;10076;52.008;4.708;2023-03-25T10:45:13;100265.09;;;13.04;100.00
19831;BME280;10076;52.008;4.708;2023-03-25T10:47:42;100276.84;;;13.29;100.00
19831;BME280;10076;52.008;4.708;2023-03-25T10:50:18;100284.00;;;13.57;100.00
19831;BME280;10076;52.008;4.708;2023-03-25T10:52:47;100287.00;;;14.09;100.00
19831;BME280;10076;52.008;4.708;2023-03-25T10:55:22;100299.38;;;14.28;100.00
19831;BME280;10076;52.008;4.708;2023-03-25T10:57:50;100276.13;;;13.93;100.00
19831;BME280;10076;52.008;4.708;2023-03-25T11:00:17;100282.59;;;14.37;100.00
19831;BME280;10076;52.008;4.708;2023-03-25T11:02:43;100325.34;;;15.06;100.00
19831;BME280;10076;52.008;4.708;2023-03-25T11:05:10;100294.16;;;14.45;100.00
19831;BME280;10076;52.008;4.708;2023-03-25T11:07:41;100303.09;;;14.53;100.00
19831;BME280;10076;52.008;4.708;2023-03-25T11:10:18;100299.97;;;14.22;100.00
19831;BME280;10076;52.008;4.708;2023-03-25T11:12:44;100291.63;;;13.98;100.00
19831;BME280;10076;52.008;4.708;2023-03-25T11:15:13;100300.44;;;13.61;100.00
19831;BME280;10076;52.008;4.708;2023-03-25T11:17:40;100283.06;;;14.04;100.00
19831;BME280;10076;52.008;4.708;2023-03-25T11:20:19;100311.41;;;14.32;100.00
19831;BME280;10076;52.008;4.708;2023-03-25T11:22:49;100295.13;;;13.79;100.00
19831;BME280;10076;52.008;4.708;2023-03-25T11:25:23;100290.03;;;14.24;100.00
19831;BME280;10076;52.008;4.708;2023-03-25T11:27:55;100298.22;;;14.40;100.00
19831;BME280;10076;52.008;4.708;2023-03-25T11:30:24;100292.72;;;14.87;100.00
19831;BME280;10076;52.008;4.708;2023-03-25T11:33:06;100307.31;;;14.47;100.00
19831;BME280;10076;52.008;4.708;2023-03-25T11:35:40;100307.97;;;13.93;100.00
19831;BME280;10076;52.008;4.708;2023-03-25T11:38:34;100305.59;;;13.81;100.00
19831;BME280;10076;52.008;4.708;2023-03-25T11:41:01;100298.34;;;13.83;100.00
19831;BME280;10076;52.008;4.708;2023-03-25T11:43:33;100310.91;;;14.09;100.00
19831;BME280;10076;52.008;4.708;2023-03-25T11:46:10;100316.22;;;14.09;100.00
19831;BME280;10076;52.008;4.708;2023-03-25T11:48:38;100300.66;;;14.24;100.00
19831;BME280;10076;52.008;4.708;2023-03-25T11:51:09;100310.03;;;14.09;100.00
19831;BME280;10076;52.008;4.708;2023-03-25T11:53:35;100319.97;;;14.26;100.00
19831;BME280;10076;52.008;4.708;2023-03-25T11:56:03;100307.06;;;14.40;100.00
19831;BME280;10076;52.008;4.708;2023-03-25T11:58:35;100321.34;;;14.66;100.00
19831;BME280;10076;52.008;4.708;2023-03-25T12:01:06;100315.19;;;14.92;100.00
19831;BME280;10076;52.008;4.708;2023-03-25T12:03:33;100286.00;;;14.83;100.00
19831;BME280;10076;52.008;4.708;2023-03-25T12:08:56;100326.44;;;14.50;100.00
19831;BME280;10076;52.008;4.708;2023-03-25T12:11:27;100327.94;;;14.89;100.00
19831;BME280;10076;52.008;4.708;2023-03-25T12:16:59;100313.13;;;15.40;100.00
19831;BME280;10076;52.008;4.708;2023-03-25T12:22:24;100307.28;;;16.14;100.00
19831;BME280;10076;52.008;4.708;2023-03-25T12:25:00;100320.34;;;15.99;100.00
19831;BME280;10076;52.008;4.708;2023-03-25T12:27:38;100294.91;;;16.30;100.00
19831;BME280;10076;52.008;4.708;2023-03-25T12:32:55;100304.75;;;15.70;100.00
19831;BME280;10076;52.008;4.708;2023-03-25T12:35:38;100301.34;;;16.45;100.00
19831;BME280;10076;52.008;4.708;2023-03-25T12:49:43;100321.16;;;15.30;100.00
19831;BME280;10076;52.008;4.708;2023-03-25T12:52:32;100335.44;;;15.03;100.00
19831;BME280;10076;52.008;4.708;2023-03-25T12:58:16;100336.47;;;14.65;100.00
19831;BME280;10076;52.008;4.708;2023-03-25T13:00:56;100329.59;;;14.08;100.00
19831;BME280;10076;52.008;4.708;2023-03-25T13:06:28;100354.34;;;15.71;100.00
19831;BME280;10076;52.008;4.708;2023-03-25T13:09:01;100352.84;;;15.68;100.00
19831;BME280;10076;52.008;4.708;2023-03-25T13:11:40;100335.00;;;15.07;100.00
19831;BME280;10076;52.008;4.708;2023-03-25T13:14:14;100344.38;;;14.39;100.00
19831;BME280;10076;52.008;4.708;2023-03-25T13:16:43;100345.78;;;15.06;100.00
19831;BME280;10076;52.008;4.708;2023-03-25T13:19:12;100353.94;;;15.48;100.00
19831;BME280;10076;52.008;4.708;2023-03-25T13:21:42;100346.06;;;15.74;100.00
19831;BME280;10076;52.008;4.708;2023-03-25T13:24:14;100354.56;;;14.79;100.00
19831;BME280;10076;52.008;4.708;2023-03-25T13:26:44;100363.09;;;14.47;100.00
19831;BME280;10076;52.008;4.708;2023-03-25T13:29:20;100351.09;;;14.43;100.00
19831;BME280;10076;52.008;4.708;2023-03-25T13:31:48;100374.19;;;14.04;100.00
19831;BME280;10076;52.008;4.708;2023-03-25T13:34:30;100372.38;;;13.86;100.00
19831;BME280;10076;52.008;4.708;2023-03-25T13:37:20;100391.94;;;13.17;100.00
19831;BME280;10076;52.008;4.708;2023-03-25T13:39:53;100397.03;;;12.70;100.00
19831;BME280;10076;52.008;4.708;2023-03-25T13:42:30;100409.78;;;12.15;100.00
19831;BME280;10076;52.008;4.708;2023-03-25T13:45:01;100393.06;;;11.94;100.00
19831;BME280;10076;52.008;4.708;2023-03-25T13:47:40;100384.78;;;12.08;100.00
19831;BME280;10076;52.008;4.708;2023-03-25T13:50:24;100388.84;;;13.61;100.00
19831;BME280;10076;52.008;4.708;2023-03-25T13:52:57;100401.56;;;15.24;100.00
19831;BME280;10076;52.008;4.708;2023-03-25T13:55:32;100395.97;;;15.18;100.00
19831;BME280;10076;52.008;4.708;2023-03-25T13:58:21;100384.53;;;14.17;100.00